createdAt,value
2018-02-17T00:01:41.922Z,0.70
2018-02-17T00:04:08.123Z,0.80
2018-02-17T00:06:35.136Z,0.70
2018-02-17T00:09:01.347Z,0.70
2018-02-17T00:11:27.809Z,0.70
2018-02-17T00:13:54.101Z,0.70
2018-02-17T00:16:20.317Z,0.70
2018-02-17T00:18:46.570Z,0.70
2018-02-17T00:21:12.800Z,0.60
2018-02-17T00:23:39.058Z,0.60
2018-02-17T00:26:06.781Z,0.50
2018-02-17T00:28:33.033Z,0.50
2018-02-17T00:30:59.221Z,0.50
2018-02-17T00:33:26.314Z,0.50
2018-02-17T00:35:52.532Z,0.50
2018-02-17T00:38:18.996Z,0.50
2018-02-17T00:40:46.029Z,0.50
2018-02-17T00:43:12.231Z,0.50
2018-02-17T00:45:38.479Z,0.60
2018-02-17T00:48:04.708Z,0.60
2018-02-17T00:50:30.897Z,0.60
2018-02-17T00:52:58.004Z,0.60
2018-02-17T00:55:24.185Z,0.60
2018-02-17T00:57:51.537Z,0.60
2018-02-17T01:00:18.404Z,0.60
2018-02-17T01:02:44.641Z,0.60
2018-02-17T01:05:10.892Z,0.60
2018-02-17T01:07:37.168Z,0.60
2018-02-17T01:10:03.376Z,0.60
2018-02-17T01:12:29.642Z,0.60
2018-02-17T01:14:55.894Z,0.60
2018-02-17T01:17:22.220Z,0.60
2018-02-17T01:19:48.471Z,0.60
2018-02-17T01:22:14.692Z,0.70
2018-02-17T01:24:41.677Z,0.70
2018-02-17T01:27:07.891Z,0.70
2018-02-17T01:29:34.107Z,0.80
2018-02-17T01:32:01.045Z,0.80
2018-02-17T01:34:34.189Z,0.80
2018-02-17T01:37:00.423Z,0.80
2018-02-17T01:39:26.760Z,0.80
2018-02-17T01:41:53.017Z,0.80
2018-02-17T01:44:19.986Z,0.80
2018-02-17T01:46:46.208Z,0.80
2018-02-17T01:49:12.456Z,0.80
2018-02-17T01:51:38.726Z,0.80
2018-02-17T01:54:04.945Z,0.90
2018-02-17T01:56:31.227Z,0.90
2018-02-17T01:58:57.485Z,1.00
2018-02-17T02:01:23.723Z,1.00
2018-02-17T02:03:50.120Z,1.00
2018-02-17T02:06:16.341Z,1.00
2018-02-17T02:08:42.781Z,1.10
2018-02-17T02:11:09.004Z,1.10
2018-02-17T02:13:35.987Z,1.10
2018-02-17T02:16:02.180Z,1.10
2018-02-17T02:18:28.429Z,1.10
2018-02-17T02:20:54.658Z,1.10
2018-02-17T02:23:20.878Z,1.10
2018-02-17T02:25:47.115Z,1.10
2018-02-17T02:28:13.336Z,1.10
2018-02-17T02:30:39.605Z,1.10
2018-02-17T02:33:06.577Z,1.20
2018-02-17T02:35:33.560Z,1.20
2018-02-17T02:37:59.769Z,1.20
2018-02-17T02:40:28.778Z,1.20
2018-02-17T02:42:55.794Z,1.20
2018-02-17T02:45:22.153Z,1.20
2018-02-17T02:47:49.171Z,1.20
2018-02-17T02:50:15.403Z,1.20
2018-02-17T02:52:41.750Z,1.30
2018-02-17T02:55:07.966Z,1.30
2018-02-17T02:57:34.213Z,1.30
2018-02-17T03:00:00.460Z,1.30
2018-02-17T03:02:27.433Z,1.30
2018-02-17T03:04:53.643Z,1.30
2018-02-17T03:07:20.069Z,1.30
2018-02-17T03:09:47.208Z,1.30
2018-02-17T03:12:13.564Z,1.30
2018-02-17T03:14:39.797Z,1.40
2018-02-17T03:17:05.969Z,1.40
2018-02-17T03:19:32.184Z,1.40
2018-02-17T03:21:58.392Z,1.40
2018-02-17T03:24:25.434Z,1.40
2018-02-17T03:26:51.654Z,1.40
2018-02-17T03:29:19.364Z,1.40
2018-02-17T03:31:45.637Z,1.40
2018-02-17T03:34:13.710Z,1.30
2018-02-17T03:36:40.708Z,1.30
2018-02-17T03:39:06.909Z,1.30
2018-02-17T03:41:33.340Z,1.30
2018-02-17T03:43:59.600Z,1.30
2018-02-17T03:46:25.863Z,1.20
2018-02-17T03:48:52.924Z,1.20
2018-02-17T03:51:19.860Z,1.20
2018-02-17T03:53:46.839Z,1.20
2018-02-17T03:56:13.071Z,1.20
2018-02-17T03:58:39.345Z,1.20
2018-02-17T04:01:05.630Z,1.20
2018-02-17T04:03:32.223Z,1.20
2018-02-17T04:05:58.575Z,1.20
2018-02-17T04:08:24.893Z,1.10
2018-02-17T04:10:51.120Z,1.10
2018-02-17T04:13:18.078Z,1.20
2018-02-17T04:15:44.324Z,1.20
2018-02-17T04:18:10.537Z,1.20
2018-02-17T04:20:36.793Z,1.20
2018-02-17T04:23:03.000Z,1.20
2018-02-17T04:25:29.282Z,1.30
2018-02-17T04:27:56.256Z,1.30
2018-02-17T04:30:22.479Z,1.30
2018-02-17T04:32:49.440Z,1.30
2018-02-17T04:35:15.665Z,1.30
2018-02-17T04:37:41.918Z,1.30
2018-02-17T04:40:11.007Z,1.30
2018-02-17T04:48:55.391Z,1.30
2018-02-17T04:51:37.562Z,1.30
2018-02-17T04:54:15.317Z,1.20
2018-02-17T04:56:47.901Z,1.20
2018-02-17T04:59:25.982Z,1.20
2018-02-17T05:01:55.264Z,1.20
2018-02-17T05:04:23.196Z,1.20
2018-02-17T05:06:55.152Z,1.20
2018-02-17T05:09:22.144Z,1.20
2018-02-17T05:11:48.357Z,1.20
2018-02-17T05:17:19.550Z,1.20
2018-02-17T05:19:49.630Z,1.20
2018-02-17T05:22:17.372Z,1.20
2018-02-17T05:24:46.477Z,1.20
2018-02-17T05:27:15.757Z,1.20
2018-02-17T05:29:51.942Z,1.20
2018-02-17T05:32:18.891Z,1.20
2018-02-17T05:34:49.172Z,1.20
2018-02-17T05:37:15.376Z,1.20
2018-02-17T05:39:42.502Z,1.20
2018-02-17T05:42:13.618Z,1.20
2018-02-17T05:44:40.699Z,1.20
2018-02-17T05:47:07.741Z,1.20
2018-02-17T05:49:34.876Z,1.20
2018-02-17T05:52:01.992Z,1.20
2018-02-17T05:54:28.189Z,1.20
2018-02-17T05:56:54.482Z,1.20
2018-02-17T05:59:21.460Z,1.20
2018-02-17T06:01:47.732Z,1.20
2018-02-17T06:04:14.718Z,1.10
2018-02-17T06:06:40.974Z,1.10
2018-02-17T06:09:07.187Z,1.10
2018-02-17T06:11:33.453Z,1.10
2018-02-17T06:13:59.675Z,1.10
2018-02-17T06:16:25.884Z,1.10
2018-02-17T06:18:52.840Z,1.20
2018-02-17T06:21:19.070Z,1.10
2018-02-17T06:23:45.400Z,1.20
2018-02-17T06:26:11.644Z,1.20
2018-02-17T06:28:37.863Z,1.20
2018-02-17T06:31:04.083Z,1.30
2018-02-17T06:33:30.285Z,1.30
2018-02-17T06:35:57.260Z,1.20
2018-02-17T06:38:23.493Z,1.20
2018-02-17T06:40:49.707Z,1.20
2018-02-17T06:43:15.915Z,1.30
2018-02-17T06:45:42.881Z,1.30
2018-02-17T06:48:09.144Z,1.30
2018-02-17T06:50:35.375Z,1.30
2018-02-17T06:53:02.432Z,1.30
2018-02-17T06:55:28.664Z,1.30
2018-02-17T06:57:54.868Z,1.40
2018-02-17T07:00:21.279Z,1.40
2018-02-17T07:02:47.500Z,1.40
2018-02-17T07:05:13.771Z,1.40
2018-02-17T07:07:39.968Z,1.40
2018-02-17T07:10:06.230Z,1.40
2018-02-17T07:12:32.429Z,1.40
2018-02-17T07:14:58.645Z,1.40
2018-02-17T07:17:24.880Z,1.40
2018-02-17T07:19:51.113Z,1.40
2018-02-17T07:22:17.333Z,1.40
2018-02-17T07:24:43.555Z,1.50
2018-02-17T07:27:09.819Z,1.50
2018-02-17T07:29:36.012Z,1.50
2018-02-17T07:32:02.245Z,1.50
2018-02-17T07:34:28.467Z,1.60
2018-02-17T07:36:54.892Z,1.60
2018-02-17T07:39:21.135Z,1.60
2018-02-17T07:41:47.710Z,1.60
2018-02-17T07:44:14.013Z,1.60
2018-02-17T07:46:40.231Z,1.60
2018-02-17T07:49:06.458Z,1.70
2018-02-17T07:51:32.706Z,1.70
2018-02-17T07:53:58.915Z,1.70
2018-02-17T07:56:26.051Z,1.80
2018-02-17T07:58:52.336Z,1.80
2018-02-17T08:01:19.668Z,1.80
2018-02-17T08:03:47.032Z,1.80
2018-02-17T08:06:14.083Z,1.90
2018-02-17T08:08:40.548Z,1.80
2018-02-17T08:11:07.548Z,2.00
2018-02-17T08:13:33.814Z,2.00
2018-02-17T08:16:00.760Z,2.00
2018-02-17T08:18:27.762Z,2.00
2018-02-17T08:20:55.005Z,2.10
2018-02-17T08:23:21.205Z,2.10
2018-02-17T08:25:47.510Z,2.10
2018-02-17T08:28:14.582Z,2.10
2018-02-17T08:30:40.838Z,2.10
2018-02-17T08:33:07.115Z,2.20
2018-02-17T08:35:34.233Z,2.10
2018-02-17T08:38:00.563Z,2.10
2018-02-17T08:40:27.171Z,2.20
2018-02-17T08:42:54.515Z,2.20
2018-02-17T08:45:20.901Z,2.30
2018-02-17T08:47:47.969Z,2.30
2018-02-17T08:50:15.033Z,2.30
2018-02-17T08:52:41.245Z,2.40
2018-02-17T08:55:08.290Z,2.40
2018-02-17T08:57:35.674Z,2.40
2018-02-17T09:00:02.041Z,2.40
2018-02-17T09:02:29.623Z,2.40
2018-02-17T09:04:55.953Z,2.40
2018-02-17T09:07:22.346Z,2.50
2018-02-17T09:09:48.612Z,2.40
2018-02-17T09:12:14.963Z,2.50
2018-02-17T09:14:41.153Z,2.50
2018-02-17T09:17:08.117Z,2.60
2018-02-17T09:19:34.485Z,2.60
2018-02-17T09:22:01.297Z,2.60
2018-02-17T09:24:27.569Z,2.60
2018-02-17T09:26:54.521Z,2.60
2018-02-17T09:29:20.989Z,2.60
2018-02-17T09:31:48.000Z,2.70
2018-02-17T09:34:14.375Z,2.70
2018-02-17T09:36:40.716Z,2.70
2018-02-17T09:39:07.127Z,2.70
2018-02-17T09:41:57.747Z,2.80
2018-02-17T09:44:29.146Z,2.80
2018-02-17T09:46:55.374Z,2.80
2018-02-17T09:49:21.630Z,2.90
2018-02-17T09:51:48.603Z,3.00
2018-02-17T09:54:14.824Z,3.00
2018-02-17T09:56:41.084Z,3.00
2018-02-17T09:59:07.324Z,3.00
2018-02-17T10:01:33.559Z,3.00
2018-02-17T10:03:59.786Z,3.10
2018-02-17T10:06:26.020Z,3.10
2018-02-17T10:08:53.083Z,3.20
2018-02-17T10:11:20.169Z,3.30
2018-02-17T10:13:46.350Z,3.30
2018-02-17T10:16:13.405Z,3.30
2018-02-17T10:18:40.634Z,3.40
2018-02-17T10:21:07.067Z,3.40
2018-02-17T10:23:33.285Z,3.40
2018-02-17T10:25:59.627Z,3.50
2018-02-17T10:28:26.673Z,3.50
2018-02-17T10:30:52.894Z,3.50
2018-02-17T10:33:19.133Z,3.60
2018-02-17T10:35:45.524Z,3.70
2018-02-17T10:38:11.846Z,3.80
2018-02-17T10:40:38.067Z,3.80
2018-02-17T10:43:04.265Z,3.90
2018-02-17T10:45:31.292Z,3.90
2018-02-17T10:47:59.039Z,3.90
2018-02-17T10:50:25.345Z,4.00
2018-02-17T10:52:51.605Z,4.00
2018-02-17T10:55:17.924Z,4.00
2018-02-17T10:57:44.564Z,4.10
2018-02-17T11:00:10.853Z,4.10
2018-02-17T11:02:37.080Z,4.30
2018-02-17T11:05:03.301Z,4.20
2018-02-17T11:07:29.612Z,4.30
2018-02-17T11:09:56.569Z,4.40
2018-02-17T11:12:23.640Z,4.40
2018-02-17T11:14:49.896Z,4.40
2018-02-17T11:17:16.114Z,4.50
2018-02-17T11:19:42.444Z,4.50
2018-02-17T11:22:08.650Z,4.50
2018-02-17T11:24:34.956Z,4.60
2018-02-17T11:27:02.588Z,4.60
2018-02-17T11:29:29.710Z,4.60
2018-02-17T11:31:56.056Z,4.60
2018-02-17T11:34:22.369Z,4.60
2018-02-17T11:36:49.014Z,4.60
2018-02-17T11:39:15.250Z,4.60
2018-02-17T11:41:41.543Z,4.60
2018-02-17T11:44:08.053Z,4.70
2018-02-17T11:46:34.666Z,4.70
2018-02-17T11:49:02.012Z,4.80
2018-02-17T11:51:28.204Z,4.70
2018-02-17T11:53:54.576Z,4.80
2018-02-17T11:56:21.633Z,4.80
2018-02-17T11:58:49.345Z,4.80
2018-02-17T12:01:15.932Z,4.80
2018-02-17T12:03:43.799Z,4.80
2018-02-17T12:06:10.122Z,4.80
2018-02-17T12:08:37.161Z,4.80
2018-02-17T12:11:04.162Z,4.80
2018-02-17T12:13:30.384Z,4.90
2018-02-17T12:15:56.640Z,4.90
2018-02-17T12:18:22.945Z,4.90
2018-02-17T12:20:49.153Z,5.00
2018-02-17T12:23:15.381Z,5.00
2018-02-17T12:25:41.716Z,5.00
2018-02-17T12:28:08.727Z,4.90
2018-02-17T12:30:34.932Z,4.90
2018-02-17T12:33:01.110Z,5.00
2018-02-17T12:35:28.250Z,4.90
2018-02-17T12:37:54.485Z,4.90
2018-02-17T12:40:21.435Z,4.90
2018-02-17T12:42:47.672Z,4.90
2018-02-17T12:45:13.941Z,5.00
2018-02-17T12:47:40.254Z,5.00
2018-02-17T12:50:06.513Z,5.10
2018-02-17T12:52:34.605Z,5.10
2018-02-17T12:55:01.013Z,5.10
2018-02-17T12:57:27.244Z,5.10
2018-02-17T12:59:53.436Z,5.00
2018-02-17T13:02:19.673Z,5.10
2018-02-17T13:04:46.101Z,5.10
2018-02-17T13:07:12.363Z,5.10
2018-02-17T13:09:58.871Z,5.10
2018-02-17T13:12:27.216Z,5.10
2018-02-17T13:14:53.483Z,5.10
2018-02-17T13:17:19.841Z,5.10
2018-02-17T13:19:46.028Z,5.10
2018-02-17T13:22:12.261Z,5.10
2018-02-17T13:24:39.217Z,5.10
2018-02-17T13:27:06.202Z,5.10
2018-02-17T13:29:32.473Z,5.10
2018-02-17T13:31:59.481Z,5.00
2018-02-17T13:34:25.759Z,5.00
2018-02-17T13:36:52.704Z,5.10
2018-02-17T13:39:19.098Z,5.10
2018-02-17T13:41:46.185Z,5.10
2018-02-17T13:44:13.206Z,5.20
2018-02-17T13:46:39.437Z,5.20
2018-02-17T13:49:05.692Z,5.20
2018-02-17T13:51:31.893Z,5.20
2018-02-17T13:53:58.207Z,5.20
2018-02-17T13:56:24.446Z,5.20
2018-02-17T13:58:50.647Z,5.20
2018-02-17T14:01:16.867Z,5.20
2018-02-17T14:03:43.087Z,5.20
2018-02-17T14:06:09.377Z,5.10
2018-02-17T14:08:35.599Z,5.20
2018-02-17T14:11:02.620Z,5.20
2018-02-17T14:13:28.847Z,5.20
2018-02-17T14:15:55.182Z,5.30
2018-02-17T14:18:21.424Z,5.30
2018-02-17T14:20:47.677Z,5.30
2018-02-17T14:23:14.783Z,5.30
2018-02-17T14:25:41.040Z,5.20
2018-02-17T14:28:07.236Z,5.20
2018-02-17T14:30:33.557Z,5.20
2018-02-17T14:32:59.789Z,5.20
2018-02-17T14:35:26.054Z,5.20
2018-02-17T14:37:52.277Z,5.20
2018-02-17T14:40:18.699Z,5.20
2018-02-17T14:42:45.934Z,5.10
2018-02-17T14:45:12.130Z,5.10
2018-02-17T14:47:38.488Z,5.00
2018-02-17T14:50:05.687Z,5.00
2018-02-17T14:52:32.685Z,5.00
2018-02-17T14:54:58.954Z,5.00
2018-02-17T14:57:25.970Z,5.00
2018-02-17T14:59:52.190Z,5.00
2018-02-17T15:02:18.550Z,5.00
2018-02-17T15:04:45.567Z,5.00
2018-02-17T15:07:11.764Z,5.00
2018-02-17T15:09:38.053Z,4.90
2018-02-17T15:12:04.396Z,4.90
2018-02-17T15:14:31.338Z,4.90
2018-02-17T15:16:59.392Z,4.80
2018-02-17T15:19:25.589Z,4.80
2018-02-17T15:21:51.798Z,4.80
2018-02-17T15:24:18.120Z,4.80
2018-02-17T15:26:44.716Z,4.70
2018-02-17T15:29:11.701Z,4.70
2018-02-17T15:31:37.981Z,4.70
2018-02-17T15:34:05.244Z,4.70
2018-02-17T15:36:31.463Z,4.70
2018-02-17T15:38:57.960Z,4.70
2018-02-17T15:41:24.304Z,4.60
2018-02-17T15:43:50.564Z,4.60
2018-02-17T15:46:16.806Z,4.60
2018-02-17T15:48:43.064Z,4.60
2018-02-17T15:51:09.425Z,4.60
2018-02-17T15:53:35.605Z,4.50
2018-02-17T15:56:02.569Z,4.50
2018-02-17T15:58:28.794Z,4.50
2018-02-17T16:00:55.306Z,4.50
2018-02-17T16:03:22.292Z,4.50
2018-02-17T16:05:48.535Z,4.50
2018-02-17T16:08:14.786Z,4.50
2018-02-17T16:10:41.969Z,4.40
2018-02-17T16:13:08.271Z,4.40
2018-02-17T16:15:34.498Z,4.40
2018-02-17T16:18:01.035Z,4.40
2018-02-17T16:20:27.278Z,4.40
2018-02-17T16:22:54.340Z,4.30
2018-02-17T16:25:20.595Z,4.30
2018-02-17T16:27:46.877Z,4.30
2018-02-17T16:30:13.834Z,4.30
2018-02-17T16:32:40.062Z,4.30
2018-02-17T16:35:06.479Z,4.30
2018-02-17T16:37:34.162Z,4.30
2018-02-17T16:40:00.470Z,4.30
2018-02-17T16:42:26.728Z,4.30
2018-02-17T16:44:52.953Z,4.30
2018-02-17T16:47:19.933Z,4.20
2018-02-17T16:49:46.183Z,4.20
2018-02-17T16:52:12.490Z,4.20
2018-02-17T16:54:38.689Z,4.20
2018-02-17T16:57:04.913Z,4.20
2018-02-17T16:59:31.970Z,4.20
2018-02-17T17:01:58.258Z,4.20
2018-02-17T17:04:24.482Z,4.20
2018-02-17T17:06:51.464Z,4.20
2018-02-17T17:09:19.773Z,4.10
2018-02-17T17:11:46.024Z,4.10
2018-02-17T17:14:13.050Z,4.10
2018-02-17T17:16:39.264Z,4.10
2018-02-17T17:19:12.682Z,4.10
2018-02-17T17:21:38.887Z,4.10
2018-02-17T17:24:05.192Z,4.10
2018-02-17T17:26:31.419Z,4.10
2018-02-17T17:28:58.433Z,4.10
2018-02-17T17:31:25.041Z,4.10
2018-02-17T17:33:51.281Z,4.10
2018-02-17T17:36:17.550Z,4.10
2018-02-17T17:38:44.668Z,4.10
2018-02-17T17:41:11.002Z,4.00
2018-02-17T17:43:37.224Z,4.00
2018-02-17T17:46:03.452Z,4.00
2018-02-17T17:48:29.656Z,4.00
2018-02-17T17:50:55.895Z,4.00
2018-02-17T17:53:22.086Z,4.00
2018-02-17T17:55:48.316Z,4.00
2018-02-17T17:58:14.574Z,4.00
2018-02-17T18:00:40.853Z,4.00
2018-02-17T18:03:07.820Z,4.00
2018-02-17T18:05:34.134Z,4.00
2018-02-17T18:08:00.397Z,4.00
2018-02-17T18:10:26.579Z,4.00
2018-02-17T18:12:53.572Z,4.00
2018-02-17T18:15:19.753Z,4.00
2018-02-17T18:17:46.767Z,3.90
2018-02-17T18:20:12.944Z,3.90
2018-02-17T18:22:39.145Z,3.90
2018-02-17T18:25:06.358Z,3.90
2018-02-17T18:27:32.728Z,3.90
2018-02-17T18:30:00.349Z,3.90
2018-02-17T18:32:26.752Z,3.90
2018-02-17T18:34:53.088Z,3.90
2018-02-17T18:37:19.441Z,3.90
2018-02-17T18:39:45.657Z,3.90
2018-02-17T18:42:12.043Z,3.80
2018-02-17T18:44:39.008Z,3.90
2018-02-17T18:47:05.274Z,3.90
2018-02-17T18:49:33.361Z,3.80
2018-02-17T18:52:00.595Z,3.80
2018-02-17T18:54:27.027Z,3.80
2018-02-17T18:56:53.680Z,3.80
2018-02-17T18:59:19.965Z,3.80
2018-02-17T19:01:46.222Z,3.80
2018-02-17T19:04:12.460Z,3.80
2018-02-17T19:06:38.856Z,3.80
2018-02-17T19:09:05.154Z,3.70
2018-02-17T19:11:32.283Z,3.70
2018-02-17T19:13:59.294Z,3.70
2018-02-17T19:16:25.509Z,3.70
2018-02-17T19:18:51.734Z,3.70
2018-02-17T19:21:18.168Z,3.70
2018-02-17T19:23:44.509Z,3.70
2018-02-17T19:26:11.078Z,3.60
2018-02-17T19:28:37.522Z,3.60
2018-02-17T19:31:04.557Z,3.60
2018-02-17T19:33:31.552Z,3.60
2018-02-17T19:35:57.799Z,3.60
2018-02-17T19:38:24.010Z,3.60
2018-02-17T19:40:50.340Z,3.60
2018-02-17T19:43:18.465Z,3.50
2018-02-17T19:45:45.032Z,3.60
2018-02-17T19:48:11.301Z,3.60
2018-02-17T19:50:45.352Z,3.60
2018-02-17T19:53:11.569Z,3.60
2018-02-17T19:55:37.781Z,3.50
2018-02-17T19:58:04.000Z,3.60
2018-02-17T20:00:30.208Z,3.60
2018-02-17T20:02:57.349Z,3.50
2018-02-17T20:05:23.661Z,3.50
2018-02-17T20:07:49.938Z,3.50
2018-02-17T20:10:17.208Z,3.50
2018-02-17T20:12:43.492Z,3.50
2018-02-17T20:15:09.698Z,3.50
2018-02-17T20:17:35.924Z,3.50
2018-02-17T20:20:02.179Z,3.50
2018-02-17T20:22:28.405Z,3.50
2018-02-17T20:24:54.633Z,3.50
2018-02-17T20:27:20.841Z,3.50
2018-02-17T20:29:47.065Z,3.50
2018-02-17T20:32:13.502Z,3.50
2018-02-17T20:34:40.453Z,3.60
2018-02-17T20:37:06.763Z,3.60
2018-02-17T20:39:33.708Z,3.70
2018-02-17T20:42:00.673Z,3.70
2018-02-17T20:44:26.881Z,3.70
2018-02-17T20:46:53.824Z,3.60
2018-02-17T20:49:20.793Z,3.60
2018-02-17T20:51:47.009Z,3.60
2018-02-17T20:54:13.245Z,3.60
2018-02-17T20:56:39.469Z,3.60
2018-02-17T20:59:05.659Z,3.60
2018-02-17T21:01:31.984Z,3.60
2018-02-17T21:03:58.225Z,3.60
2018-02-17T21:06:24.593Z,3.50
2018-02-17T21:08:50.801Z,3.50
2018-02-17T21:11:17.744Z,3.50
2018-02-17T21:13:44.678Z,3.50
2018-02-17T21:16:10.897Z,3.50
2018-02-17T21:18:37.195Z,3.50
2018-02-17T21:21:03.371Z,3.50
2018-02-17T21:23:29.644Z,3.50
2018-02-17T21:25:55.858Z,3.50
2018-02-17T21:28:22.068Z,3.50
2018-02-17T21:30:48.269Z,3.40
2018-02-17T21:33:15.585Z,3.40
2018-02-17T21:35:41.821Z,3.40
2018-02-17T21:38:08.151Z,3.40
2018-02-17T21:40:34.583Z,3.40
2018-02-17T21:43:00.781Z,3.40
2018-02-17T21:45:27.026Z,3.40
2018-02-17T21:47:53.386Z,3.30
2018-02-17T21:50:19.637Z,3.40
2018-02-17T21:52:46.685Z,3.40
2018-02-17T21:55:12.912Z,3.30
2018-02-17T21:57:39.853Z,3.40
2018-02-17T22:00:06.797Z,3.40
2018-02-17T22:02:33.792Z,3.40
2018-02-17T22:05:00.004Z,3.30
2018-02-17T22:07:26.180Z,3.30
2018-02-17T22:09:52.439Z,3.40
2018-02-17T22:12:18.638Z,3.30
2018-02-17T22:14:44.838Z,3.30
2018-02-17T22:17:11.192Z,3.30
2018-02-17T22:19:37.670Z,3.30
2018-02-17T22:22:04.021Z,3.30
2018-02-17T22:24:31.066Z,3.20
2018-02-17T22:26:57.315Z,3.30
2018-02-17T22:29:23.576Z,3.20
2018-02-17T22:31:49.876Z,3.20
2018-02-17T22:34:16.150Z,3.20
2018-02-17T22:36:42.655Z,3.20
2018-02-17T22:39:09.021Z,3.10
2018-02-17T22:41:35.237Z,3.10
2018-02-17T22:44:01.477Z,3.10
2018-02-17T22:46:27.705Z,3.10
2018-02-17T22:48:53.993Z,3.10
2018-02-17T22:51:20.262Z,3.10
2018-02-17T22:53:46.476Z,3.10
2018-02-17T22:56:12.664Z,3.10
2018-02-17T22:58:38.908Z,3.10
2018-02-17T23:01:05.880Z,3.00
2018-02-17T23:03:32.108Z,3.00
2018-02-17T23:05:58.320Z,3.00
2018-02-17T23:08:24.565Z,3.10
2018-02-17T23:10:50.780Z,3.00
2018-02-17T23:13:17.178Z,3.00
2018-02-17T23:15:43.361Z,3.00
2018-02-17T23:18:09.620Z,3.00
2018-02-17T23:20:35.832Z,3.00
2018-02-17T23:23:02.029Z,3.00
2018-02-17T23:25:28.248Z,3.00
2018-02-17T23:27:54.460Z,3.00
2018-02-17T23:30:21.425Z,2.90
2018-02-17T23:32:47.599Z,2.90
2018-02-17T23:35:13.809Z,2.90
2018-02-17T23:37:40.001Z,2.90
2018-02-17T23:40:06.229Z,3.00
2018-02-17T23:42:33.251Z,2.90
2018-02-17T23:44:59.436Z,2.90
2018-02-17T23:47:25.634Z,2.90
2018-02-17T23:49:51.852Z,2.90
2018-02-17T23:52:18.813Z,2.90
2018-02-17T23:54:44.996Z,2.90
2018-02-17T23:57:11.197Z,2.90
2018-02-17T23:59:37.481Z,3.00
